Time;durP1;ratioP1;P1;durP2;ratioP2;P2;SDS_P1;SDS_P2;PMS_P1;PMS_P2;Temp;Humidity;BMP_temperature;BMP_pressure;BME280_temperature;BME280_humidity;BME280_pressure;Samples;Min_cycle;Max_cycle;Signal;HPM_P1;HPM_P2
2023/01/13 00:00:06;;;;;;;4.90;1.00;;;;;;;12.00;50.60;100069.56;7392609;19;20002;-62
2023/01/13 00:02:31;;;;;;;6.35;1.08;;;;;;;11.96;50.63;100070.69;7392428;19;20009;-63
2023/01/13 00:04:57;;;;;;;5.60;1.00;;;;;;;12.01;50.28;100067.63;7389934;19;20501;-63
2023/01/13 00:07:23;;;;;;;4.75;1.20;;;;;;;12.07;50.12;100057.94;7391095;19;19998;-62
2023/01/13 00:09:49;;;;;;;7.18;1.02;;;;;;;12.14;49.77;100060.78;7390155;19;20722;-62
2023/01/13 00:12:15;;;;;;;5.95;1.30;;;;;;;12.09;49.83;100060.31;7392511;19;19999;-63
2023/01/13 00:14:40;;;;;;;7.35;1.33;;;;;;;12.00;49.92;100058.63;7390213;19;19998;-63
2023/01/13 00:17:06;;;;;;;4.53;0.90;;;;;;;12.04;49.65;100059.47;7390562;19;19994;-63
2023/01/13 00:19:32;;;;;;;4.30;1.00;;;;;;;12.05;49.91;100060.25;7390392;19;20347;-63
2023/01/13 00:21:57;;;;;;;3.63;1.02;;;;;;;12.06;50.10;100061.84;7391329;19;20003;-62
2023/01/13 00:24:23;;;;;;;5.38;1.08;;;;;;;11.99;50.25;100062.53;7390017;19;19998;-63
2023/01/13 00:26:49;;;;;;;2.38;0.70;;;;;;;11.98;50.29;100068.38;7389375;19;20007;-64
2023/01/13 00:29:15;;;;;;;3.15;0.80;;;;;;;12.01;50.39;100067.63;7390639;19;19998;-63
2023/01/13 00:31:41;;;;;;;3.85;0.95;;;;;;;12.17;50.12;100073.75;7389435;19;20011;-63
2023/01/13 00:34:07;;;;;;;3.40;1.08;;;;;;;12.14;50.04;100060.78;7390007;19;20006;-63
2023/01/13 00:36:32;;;;;;;3.38;0.80;;;;;;;12.22;49.80;100069.88;7389886;19;20005;-62
2023/01/13 00:38:58;;;;;;;5.28;0.73;;;;;;;12.30;49.74;100070.75;7388010;19;20020;-62
2023/01/13 00:41:25;;;;;;;5.32;0.80;;;;;;;12.33;50.12;100075.50;7388254;19;20006;-62
2023/01/13 00:43:51;;;;;;;3.47;0.65;;;;;;;12.34;49.98;100077.06;7390449;19;20005;-62
2023/01/13 00:46:19;;;;;;;4.28;0.90;;;;;;;12.35;50.05;100068.47;7390781;19;20011;-61
2023/01/13 00:48:46;;;;;;;3.47;0.60;;;;;;;12.27;50.26;100071.50;7390541;19;20006;-62
2023/01/13 00:51:15;;;;;;;4.35;0.88;;;;;;;12.27;50.25;100075.00;7389571;19;20455;-62
2023/01/13 00:53:44;;;;;;;5.97;1.20;;;;;;;12.31;50.14;100077.81;7389644;19;20007;-62
2023/01/13 00:56:13;;;;;;;5.10;0.98;;;;;;;12.29;50.11;100080.13;7388295;19;19998;-62
2023/01/13 00:58:39;;;;;;;6.75;1.42;;;;;;;12.21;49.95;100080.03;7389918;19;20019;-62
2023/01/13 01:01:09;;;;;;;4.53;1.05;;;;;;;12.21;49.94;100084.72;7389653;19;20007;-62
2023/01/13 01:03:35;;;;;;;6.45;1.10;;;;;;;11.96;50.35;100076.16;7388895;19;20381;-61
2023/01/13 01:06:11;;;;;;;5.88;1.17;;;;;;;11.69;50.13;100084.31;7389620;19;19994;-63
2023/01/13 01:08:37;;;;;;;5.07;1.27;;;;;;;11.65;50.55;100086.97;7394354;19;19990;-62
2023/01/13 01:11:05;;;;;;;7.40;1.42;;;;;;;11.80;49.75;100087.22;7388558;19;20014;-64
2023/01/13 01:13:31;;;;;;;4.35;1.52;;;;;;;11.91;49.59;100093.66;7390058;19;20019;-63
2023/01/13 01:16:05;;;;;;;10.77;1.80;;;;;;;11.88;49.46;100099.09;7390170;19;19999;-63
2023/01/13 01:18:34;;;;;;;9.63;1.60;;;;;;;11.80;49.38;100095.41;7388672;19;20356;-63
2023/01/13 01:21:00;;;;;;;10.20;1.55;;;;;;;11.82;49.32;100096.63;7392472;19;19995;-62
2023/01/13 01:23:30;;;;;;;9.60;1.45;;;;;;;11.78;49.46;100106.72;7394692;19;20439;-62
2023/01/13 01:26:03;;;;;;;6.32;1.65;;;;;;;11.75;49.15;100115.63;7397030;19;20112;-62
2023/01/13 01:28:29;;;;;;;11.32;2.13;;;;;;;11.66;49.09;100117.84;7396325;19;19999;-62
2023/01/13 01:30:57;;;;;;;11.55;1.90;;;;;;;11.42;49.25;100111.59;7395779;19;20360;-62
2023/01/13 01:33:23;;;;;;;7.03;1.48;;;;;;;11.52;49.11;100125.78;7395822;19;20074;-62
2023/01/13 01:35:48;;;;;;;11.52;1.90;;;;;;;11.30;49.40;100109.84;7396324;19;20020;-62
2023/01/13 01:38:14;;;;;;;9.38;1.95;;;;;;;11.52;48.87;100101.19;7395536;19;19998;-63
2023/01/13 01:40:40;;;;;;;11.48;2.08;;;;;;;11.45;48.91;100110.84;7394042;19;20026;-62
2023/01/13 01:44:01;;;;;;;9.27;2.00;;;;;;;11.44;47.76;100101.09;7395357;19;20072;-62
2023/01/13 01:46:42;;;;;;;9.32;1.80;;;;;;;11.43;47.91;100104.97;7396196;19;19999;-61
2023/01/13 01:49:18;;;;;;;9.85;1.90;;;;;;;11.46;48.17;100096.03;7393394;19;20358;-62
2023/01/13 01:52:36;;;;;;;11.48;2.33;;;;;;;11.41;47.24;100098.28;7395605;19;20344;-61
2023/01/13 01:55:04;;;;;;;13.25;2.33;;;;;;;11.39;48.09;100089.66;7390905;19;20033;-62
2023/01/13 01:57:53;;;;;;;14.30;2.58;;;;;;;11.32;46.79;100089.53;7395419;19;20078;-62
2023/01/13 02:00:19;;;;;;;14.85;2.13;;;;;;;11.26;47.66;100089.06;7395400;19;20005;-62
2023/01/13 02:02:47;;;;;;;13.38;2.58;;;;;;;11.24;47.07;100088.63;7393330;19;20002;-63
2023/01/13 02:05:13;;;;;;;15.07;2.45;;;;;;;11.30;47.22;100093.44;7391572;19;20002;-62
2023/01/13 02:07:41;;;;;;;12.32;2.38;;;;;;;11.30;46.96;100089.91;7392964;19;20009;-62
2023/01/13 02:10:10;;;;;;;17.23;3.05;;;;;;;11.37;46.86;100105.63;7395194;19;20006;-62
2023/01/13 02:12:38;;;;;;;13.82;2.80;;;;;;;11.14;46.90;100095.47;7394019;19;20351;-62
2023/01/13 02:15:25;;;;;;;16.70;2.85;;;;;;;11.26;46.94;100097.25;7393978;19;20470;-62
2023/01/13 02:18:20;;;;;;;19.00;3.22;;;;;;;11.35;46.14;100099.75;7392873;19;19999;-62
2023/01/13 02:21:07;;;;;;;13.88;2.70;;;;;;;11.15;46.09;100105.22;7394616;19;20007;-61
2023/01/13 02:27:00;;;;;;;13.60;2.80;;;;;;;11.02;46.56;100112.81;7394300;19;20522;-63
2023/01/13 02:32:33;;;;;;;;;;;;;;;10.89;46.64;100122.31;7390926;19;20012;-62
2023/01/13 02:35:23;;;;;;;14.00;3.05;;;;;;;11.11;46.85;100129.75;7392899;19;19983;-62
2023/01/13 02:37:49;;;;;;;16.17;3.05;;;;;;;11.24;46.67;100126.88;7393776;19;19999;-62
2023/01/13 02:40:32;;;;;;;16.20;3.28;;;;;;;11.30;46.06;100133.59;7393207;19;20007;-62
2023/01/13 02:46:13;;;;;;;18.58;2.80;;;;;;;11.27;46.58;100137.06;7394537;19;20356;-61
2023/01/13 02:48:43;;;;;;;17.63;3.00;;;;;;;11.21;46.58;100124.88;7393689;19;19999;-61
2023/01/13 02:51:15;;;;;;;17.42;3.38;;;;;;;11.09;46.13;100129.34;7393571;19;19995;-61
2023/01/13 02:53:55;;;;;;;20.38;3.30;;;;;;;11.14;46.40;100143.84;7392897;19;19999;-61
2023/01/13 02:56:23;;;;;;;14.10;2.90;;;;;;;11.00;46.79;100144.34;7393938;19;20008;-62
2023/01/13 02:58:50;;;;;;;16.52;3.30;;;;;;;10.93;46.77;100142.28;7391230;19;20324;-62
2023/01/13 03:01:16;;;;;;;15.50;3.13;;;;;;;11.03;47.03;100138.19;7394128;19;19998;-61
2023/01/13 03:03:43;;;;;;;17.73;3.33;;;;;;;10.98;46.71;100131.06;7392877;19;20003;-62
2023/01/13 03:06:28;;;;;;;16.63;3.20;;;;;;;11.09;46.28;100121.13;7393312;19;20074;-62
2023/01/13 03:09:15;;;;;;;16.13;3.15;;;;;;;11.15;46.12;100115.38;7391101;19;20011;-62
2023/01/13 03:11:49;;;;;;;20.25;3.40;;;;;;;10.89;46.87;100116.84;7392130;19;20006;-62
2023/01/13 03:14:29;;;;;;;19.75;3.13;;;;;;;11.00;46.65;100139.66;7392574;19;20007;-62
2023/01/13 03:17:26;;;;;;;18.27;3.70;;;;;;;11.04;46.03;100140.56;7391688;19;20019;-62
2023/01/13 03:20:03;;;;;;;18.88;3.17;;;;;;;10.97;46.50;100129.50;7393268;19;20459;-62
2023/01/13 03:22:39;;;;;;;16.25;3.17;;;;;;;11.02;46.13;100129.19;7393235;19;20005;-62
2023/01/13 03:25:17;;;;;;;14.20;3.50;;;;;;;11.00;45.79;100119.78;7389001;19;20020;-61
2023/01/13 03:27:55;;;;;;;14.90;3.08;;;;;;;11.00;45.57;100106.13;7392513;19;20028;-61
2023/01/13 03:30:39;;;;;;;19.08;3.55;;;;;;;11.08;45.59;100111.34;7392168;19;20030;-61
2023/01/13 03:33:29;;;;;;;14.13;3.50;;;;;;;10.86;44.91;100106.66;7392444;19;20003;-61
2023/01/13 03:36:05;;;;;;;16.70;3.22;;;;;;;10.97;45.63;100102.19;7392202;19;19990;-61
2023/01/13 03:38:36;;;;;;;19.38;3.60;;;;;;;11.02;45.51;100104.63;7391934;19;20045;-61
2023/01/13 03:41:11;;;;;;;17.80;3.97;;;;;;;10.98;45.21;100092.81;7389981;19;20483;-61
2023/01/13 03:44:22;;;;;;;16.45;3.50;;;;;;;10.89;44.96;100100.47;7391816;19;20010;-61
2023/01/13 03:46:54;;;;;;;20.08;3.80;;;;;;;10.86;44.79;100093.78;7392141;19;20831;-62
2023/01/13 03:49:25;;;;;;;22.08;3.63;;;;;;;11.02;45.09;100104.63;7391893;19;20007;-62
2023/01/13 03:51:57;;;;;;;17.10;3.80;;;;;;;10.96;45.04;100106.06;7388875;19;20002;-61
2023/01/13 03:54:26;;;;;;;17.23;3.65;;;;;;;10.82;45.42;100095.66;7391457;19;20019;-61
2023/01/13 03:57:00;;;;;;;21.08;4.18;;;;;;;11.00;44.66;100106.13;7391622;19;20046;-61
2023/01/13 03:59:29;;;;;;;;;;;;;;;10.60;44.72;100093.59;7392660;19;20002;-61
2023/01/13 04:02:05;;;;;;;16.95;3.75;;;;;;;10.79;45.08;100101.84;7391072;19;19911;-61
2023/01/13 04:05:00;;;;;;;19.70;3.65;;;;;;;10.85;44.62;100108.56;7390152;19;20013;-62
2023/01/13 04:07:56;;;;;;;20.05;4.00;;;;;;;10.73;44.54;100114.16;7390718;19;20354;-62
2023/01/13 04:10:34;;;;;;;18.35;3.38;;;;;;;10.85;44.63;100122.22;7391477;19;20130;-61
2023/01/13 04:13:05;;;;;;;17.85;3.55;;;;;;;10.76;45.49;100123.59;7390830;19;20079;-62
2023/01/13 04:15:49;;;;;;;16.08;3.70;;;;;;;10.79;44.88;100120.16;7391143;19;20479;-61
2023/01/13 04:18:15;;;;;;;;;;;;;;;10.54;44.87;100104.03;7390715;19;20569;-61
2023/01/13 04:20:43;;;;;;;16.27;2.92;;;;;;;10.66;45.63;100097.63;7391426;19;19935;-62
2023/01/13 04:23:09;;;;;;;17.02;3.17;;;;;;;10.77;45.00;100106.88;7390458;19;19998;-61
2023/01/13 04:25:35;;;;;;;22.45;3.65;;;;;;;10.70;45.17;100104.75;7391235;19;20010;-62
2023/01/13 04:28:02;;;;;;;20.10;3.80;;;;;;;10.66;45.34;100103.88;7390438;19;20510;-61
2023/01/13 04:30:27;;;;;;;15.82;3.53;;;;;;;10.46;45.89;100105.03;7390632;19;20005;-61
2023/01/13 04:32:53;;;;;;;17.10;3.70;;;;;;;10.54;45.85;100090.38;7390845;19;19994;-62
2023/01/13 04:35:19;;;;;;;15.55;3.75;;;;;;;10.44;45.85;100096.41;7388547;19;19990;-62
2023/01/13 04:37:45;;;;;;;23.95;4.25;;;;;;;10.57;45.51;100078.75;7390552;19;19995;-61
2023/01/13 04:40:11;;;;;;;18.08;3.67;;;;;;;10.52;45.85;100076.31;7387962;19;20463;-62
2023/01/13 04:42:37;;;;;;;20.42;4.10;;;;;;;10.59;45.66;100078.41;7390051;19;19999;-62
2023/01/13 04:45:03;;;;;;;17.63;4.32;;;;;;;10.54;45.34;100079.47;7388436;19;20103;-61
2023/01/13 04:47:28;;;;;;;20.75;4.07;;;;;;;10.47;45.85;100076.56;7390012;19;20083;-61
2023/01/13 04:49:54;;;;;;;16.20;3.65;;;;;;;10.37;45.74;100075.22;7388306;19;20405;-61
2023/01/13 04:52:20;;;;;;;21.15;3.67;;;;;;;9.98;46.58;100075.13;7388589;19;20016;-62
2023/01/13 04:54:45;;;;;;;22.15;3.65;;;;;;;10.33;45.94;100064.22;7388878;19;20028;-62
2023/01/13 04:57:11;;;;;;;17.85;4.13;;;;;;;10.21;46.12;100061.63;7397396;19;19998;-62
2023/01/13 04:59:37;;;;;;;16.85;3.50;;;;;;;10.16;45.92;100056.44;7396900;19;20068;-62
2023/01/13 05:02:03;;;;;;;21.48;4.28;;;;;;;10.11;46.31;100062.19;7397372;19;20006;-63
2023/01/13 05:04:29;;;;;;;24.45;4.05;;;;;;;10.27;45.61;100065.66;7396511;19;19995;-62
2023/01/13 05:06:55;;;;;;;18.00;3.67;;;;;;;10.37;45.72;100062.38;7397051;19;20018;-63
2023/01/13 05:09:21;;;;;;;18.33;4.07;;;;;;;10.44;45.29;100056.28;7397125;19;20002;-62
2023/01/13 05:17:23;;;;;;;17.92;4.03;;;;;;;10.31;45.49;100071.97;7396080;19;20353;-60
2023/01/13 05:19:49;;;;;;;;;;;;;;;10.10;45.79;100068.78;7398375;19;20506;-61
2023/01/13 05:27:44;;;;;;;21.83;4.10;;;;;;;10.82;44.82;100067.56;7396255;19;19991;-61
2023/01/13 05:30:10;;;;;;;20.48;3.75;;;;;;;10.51;45.26;100066.53;7397016;19;20359;-61
2023/01/13 05:32:36;;;;;;;17.10;4.25;;;;;;;10.46;45.31;100062.16;7393309;19;20003;-61
2023/01/13 05:35:02;;;;;;;17.30;3.80;;;;;;;10.50;45.03;100082.13;7394086;19;20341;-61
2023/01/13 05:37:27;;;;;;;22.98;4.70;;;;;;;10.59;45.05;100062.03;7395575;19;19994;-61
2023/01/13 05:45:30;;;;;;;25.20;4.30;;;;;;;10.58;45.03;100061.22;7396363;19;20062;-62
2023/01/13 05:47:56;;;;;;;23.52;4.43;;;;;;;10.48;45.01;100067.25;7395509;19;19999;-61
2023/01/13 05:50:22;;;;;;;22.27;4.03;;;;;;;10.55;45.28;100051.00;7395531;19;19995;-61
2023/01/13 05:52:48;;;;;;;18.55;4.32;;;;;;;10.68;44.85;100041.53;7394135;19;20002;-61
2023/01/13 05:55:14;;;;;;;23.95;4.72;;;;;;;10.68;44.57;100052.44;7393395;19;20026;-62
2023/01/13 05:57:40;;;;;;;22.35;5.00;;;;;;;10.49;45.37;100045.06;7395073;19;20002;-62
2023/01/13 06:00:07;;;;;;;24.45;4.85;;;;;;;10.56;44.81;100053.38;7395214;19;20018;-62
2023/01/13 06:02:33;;;;;;;25.73;4.20;;;;;;;10.62;44.89;100062.09;7395898;19;20102;-62
2023/01/13 06:04:58;;;;;;;21.40;3.75;;;;;;;10.84;44.42;100054.34;7393280;19;19994;-61
2023/01/13 06:07:24;;;;;;;22.75;4.25;;;;;;;10.73;44.82;100049.44;7390597;19;20008;-62
2023/01/13 06:09:50;;;;;;;22.42;4.78;;;;;;;10.71;44.67;100056.41;7393550;19;19998;-62
2023/01/13 06:12:16;;;;;;;23.15;4.20;;;;;;;10.73;44.68;100054.88;7393597;19;20046;-62
2023/01/13 06:14:41;;;;;;;20.05;4.32;;;;;;;10.78;44.50;100055.78;7392833;19;20383;-61
2023/01/13 06:17:13;;;;;;;21.95;4.13;;;;;;;10.74;44.35;100051.00;7394882;19;20859;-61
2023/01/13 06:19:39;;;;;;;14.95;3.55;;;;;;;10.73;44.73;100054.88;7394736;19;19998;-61
2023/01/13 06:22:17;;;;;;;19.70;4.22;;;;;;;10.84;44.16;100048.91;7395080;19;20007;-60
2023/01/13 06:24:48;;;;;;;22.15;4.13;;;;;;;10.79;44.42;100051.91;7392350;19;20102;-61
2023/01/13 06:27:14;;;;;;;20.13;3.97;;;;;;;10.49;45.07;100055.19;7392695;19;19998;-61
2023/01/13 06:29:40;;;;;;;21.50;4.13;;;;;;;10.52;45.10;100043.56;7394637;19;20028;-61
2023/01/13 06:32:11;;;;;;;20.05;4.20;;;;;;;10.68;44.74;100055.19;7392678;19;20071;-61
2023/01/13 06:34:39;;;;;;;20.83;3.83;;;;;;;10.84;44.52;100052.41;7391054;19;20569;-61
2023/01/13 06:37:05;;;;;;;23.50;4.32;;;;;;;10.69;44.73;100051.31;7391639;19;20002;-61
2023/01/13 06:39:34;;;;;;;20.40;4.05;;;;;;;10.92;44.12;100056.03;7394677;19;20002;-61
2023/01/13 06:44:53;;;;;;;22.95;3.70;;;;;;;10.52;44.72;100057.22;7392437;19;20037;-61
2023/01/13 06:47:21;;;;;;;21.63;4.43;;;;;;;10.63;44.55;100060.16;7392817;19;20474;-61
2023/01/13 06:49:47;;;;;;;18.85;3.45;;;;;;;10.70;44.48;100061.09;7394251;19;20078;-61
2023/01/13 06:52:13;;;;;;;18.15;3.78;;;;;;;10.69;44.35;100064.97;7389905;19;20006;-61
2023/01/13 06:54:39;;;;;;;19.52;3.80;;;;;;;10.79;44.28;100058.16;7392023;19;20023;-61
2023/01/13 06:57:05;;;;;;;21.58;3.53;;;;;;;10.54;44.43;100063.09;7392847;19;20010;-62
2023/01/13 06:59:33;;;;;;;19.75;3.75;;;;;;;10.61;44.37;100055.03;7394540;19;19999;-61
2023/01/13 07:01:59;;;;;;;22.67;4.28;;;;;;;10.22;45.03;100057.75;7390679;19;20013;-61
2023/01/13 07:04:24;;;;;;;25.35;3.97;;;;;;;10.44;44.41;100060.94;7392948;19;20519;-61
2023/01/13 07:06:50;;;;;;;19.05;4.00;;;;;;;10.72;43.93;100068.91;7393480;19;20016;-61
2023/01/13 07:09:16;;;;;;;18.92;3.75;;;;;;;10.58;43.99;100061.22;7392087;19;20348;-61
2023/01/13 07:11:42;;;;;;;21.17;4.10;;;;;;;10.47;44.09;100060.19;7391489;19;20013;-60
2023/01/13 07:16:52;;;;;;;;;;;;;;;9.82;45.00;100050.66;7393713;19;20006;-60
2023/01/13 07:19:22;;;;;;;19.52;3.60;;;;;;;9.80;45.74;100052.91;7391538;19;19939;-61
2023/01/13 07:21:51;;;;;;;19.83;3.80;;;;;;;10.07;44.65;100055.84;7393300;19;20099;-62
2023/01/13 07:24:18;;;;;;;14.63;3.40;;;;;;;10.35;44.40;100058.41;7391500;19;20006;-60
2023/01/13 07:26:44;;;;;;;19.52;3.72;;;;;;;10.48;44.05;100069.97;7392797;19;20003;-62
2023/01/13 07:29:10;;;;;;;16.10;4.07;;;;;;;10.46;43.83;100061.38;7391367;19;20021;-61
2023/01/13 07:31:37;;;;;;;17.95;3.53;;;;;;;10.35;44.42;100053.75;7391754;19;19998;-62
2023/01/13 07:34:04;;;;;;;21.25;3.83;;;;;;;10.43;44.21;100051.16;7391239;19;20014;-62
2023/01/13 07:36:30;;;;;;;18.75;3.58;;;;;;;10.21;44.54;100044.47;7391996;19;20482;-61
2023/01/13 07:38:56;;;;;;;17.52;3.50;;;;;;;10.07;44.63;100051.19;7391365;19;20007;-62
2023/01/13 07:44:09;;;;;;;17.10;3.63;;;;;;;10.18;44.49;100063.16;7392214;19;20006;-61
2023/01/13 07:46:36;;;;;;;20.48;3.60;;;;;;;10.31;44.07;100065.72;7390233;19;20459;-61
2023/01/13 07:49:03;;;;;;;17.60;3.55;;;;;;;10.36;44.17;100063.50;7391693;19;20004;-62
2023/01/13 07:51:29;;;;;;;21.60;3.92;;;;;;;10.12;44.55;100059.09;7390320;19;19998;-61
2023/01/13 07:53:55;;;;;;;16.17;3.95;;;;;;;10.25;44.23;100067.16;7391695;19;19991;-61
2023/01/13 07:56:21;;;;;;;18.92;3.70;;;;;;;10.36;44.49;100068.97;7391717;19;20005;-58
2023/01/13 07:58:49;;;;;;;19.40;3.50;;;;;;;10.27;44.17;100053.94;7392038;19;20002;-58
2023/01/13 08:01:17;;;;;;;18.10;3.72;;;;;;;10.23;44.20;100058.53;7391540;19;20002;-57
2023/01/13 08:03:43;;;;;;;14.80;3.08;;;;;;;10.11;44.40;100067.63;7391144;19;20026;-58
2023/01/13 08:06:10;;;;;;;18.23;3.47;;;;;;;10.28;44.07;100078.13;7391194;19;20002;-58
2023/01/13 08:08:36;;;;;;;14.02;3.38;;;;;;;10.40;43.57;100082.66;7391477;19;20070;-59
2023/01/13 08:11:03;;;;;;;17.77;2.85;;;;;;;10.59;43.07;100073.72;7391052;19;20007;-58
2023/01/13 08:13:29;;;;;;;14.98;2.97;;;;;;;10.66;43.44;100062.94;7390718;19;19999;-58
2023/01/13 08:16:01;;;;;;;12.40;3.13;;;;;;;10.44;43.54;100063.66;7391670;19;19994;-58
2023/01/13 08:18:27;;;;;;;20.10;3.35;;;;;;;10.11;44.06;100068.41;7390522;19;20023;-59
2023/01/13 08:20:54;;;;;;;12.00;2.42;;;;;;;10.15;43.92;100068.50;7391374;19;20023;-57
2023/01/13 08:23:21;;;;;;;14.77;2.67;;;;;;;10.07;43.63;100069.47;7388662;19;20003;-58
2023/01/13 08:25:47;;;;;;;13.93;2.65;;;;;;;10.25;43.28;100073.41;7391509;19;19999;-58
2023/01/13 08:28:15;;;;;;;16.13;3.30;;;;;;;10.15;43.37;100085.66;7389976;19;20021;-58
2023/01/13 08:30:41;;;;;;;12.95;2.42;;;;;;;10.17;43.54;100077.13;7388608;19;19999;-58
2023/01/13 08:33:09;;;;;;;17.02;2.78;;;;;;;10.16;43.47;100076.31;7390948;19;20005;-59
2023/01/13 08:35:36;;;;;;;11.55;2.42;;;;;;;10.28;42.89;100083.59;7391050;19;19995;-58
2023/01/13 08:38:03;;;;;;;15.98;3.05;;;;;;;10.33;42.92;100079.81;7389049;19;20522;-58
2023/01/13 08:40:29;;;;;;;13.07;2.35;;;;;;;10.47;42.82;100073.84;7389727;19;20010;-58
2023/01/13 08:42:56;;;;;;;11.90;2.25;;;;;;;10.34;42.79;100087.63;7390910;19;20006;-58
2023/01/13 08:45:21;;;;;;;10.02;2.35;;;;;;;10.50;42.61;100075.84;7388446;19;20006;-58
2023/01/13 08:47:47;;;;;;;11.52;2.38;;;;;;;10.76;42.07;100085.38;7389992;19;20006;-59
2023/01/13 08:50:13;;;;;;;12.35;2.10;;;;;;;10.37;42.80;100081.47;7388536;19;20007;-58
2023/01/13 08:52:40;;;;;;;10.73;2.05;;;;;;;10.33;42.81;100083.31;7388550;19;20006;-59
2023/01/13 08:55:06;;;;;;;12.52;2.47;;;;;;;10.44;42.40;100064.44;7386667;19;20038;-57
2023/01/13 08:57:32;;;;;;;12.73;2.30;;;;;;;10.37;42.84;100086.91;7389336;19;20371;-59
2023/01/13 08:59:58;;;;;;;15.20;2.60;;;;;;;10.22;42.92;100090.50;7389891;19;20006;-59
2023/01/13 09:02:25;;;;;;;14.13;2.20;;;;;;;10.51;42.72;100072.78;7388384;19;20006;-57
2023/01/13 09:04:51;;;;;;;13.35;2.33;;;;;;;10.67;42.41;100078.19;7387023;19;20041;-57
2023/01/13 09:07:17;;;;;;;11.70;2.22;;;;;;;10.82;42.13;100079.28;7389259;19;20352;-58
2023/01/13 09:09:43;;;;;;;11.73;2.10;;;;;;;10.64;42.39;100081.63;7389530;19;20003;-57
2023/01/13 09:15:05;;;;;;;13.77;2.03;;;;;;;10.80;41.98;100088.97;7385085;19;20027;-58
2023/01/13 09:17:30;;;;;;;11.77;2.53;;;;;;;10.53;42.57;100086.84;7387992;19;19998;-58
2023/01/13 09:19:56;;;;;;;16.67;2.40;;;;;;;10.84;42.42;100082.44;7389961;19;20003;-57
2023/01/13 09:22:25;;;;;;;11.50;2.33;;;;;;;10.84;42.18;100073.47;7389216;19;20003;-58
2023/01/13 09:24:53;;;;;;;13.13;2.13;;;;;;;10.55;42.41;100079.13;7386221;19;20010;-58
2023/01/13 09:27:20;;;;;;;12.38;2.05;;;;;;;10.66;42.07;100076.59;7387770;19;20073;-58
2023/01/13 09:29:45;;;;;;;11.93;2.40;;;;;;;10.41;42.80;100072.56;7389568;19;20015;-58
2023/01/13 09:32:12;;;;;;;10.23;2.15;;;;;;;10.38;43.10;100074.06;7386518;19;19999;-58
2023/01/13 09:37:22;;;;;;;10.80;2.17;;;;;;;10.65;42.35;100077.75;7388114;19;20071;-58
2023/01/13 09:39:48;;;;;;;13.82;2.40;;;;;;;10.73;42.19;100068.53;7389319;19;19998;-58
2023/01/13 09:45:44;;;;;;;13.75;2.25;;;;;;;10.76;42.09;100086.19;7396052;19;20027;-59
2023/01/13 09:48:12;;;;;;;11.63;2.47;;;;;;;10.55;42.40;100091.94;7394677;19;20404;-58
2023/01/13 09:51:23;;;;;;;14.13;2.58;;;;;;;10.73;41.67;100079.44;7395790;19;20015;-58
2023/01/13 09:53:55;;;;;;;9.63;2.42;;;;;;;10.91;41.92;100089.97;7394899;19;20471;-59
2023/01/13 09:56:25;;;;;;;14.88;2.65;;;;;;;10.83;41.66;100090.97;7394586;19;20006;-58
2023/01/13 09:58:51;;;;;;;12.43;2.63;;;;;;;10.89;41.79;100089.56;7393482;19;20011;-58
2023/01/13 10:01:34;;;;;;;15.57;2.67;;;;;;;10.95;41.69;100088.09;7396150;19;20106;-57
2023/01/13 10:04:08;;;;;;;12.75;2.40;;;;;;;11.10;41.70;100089.97;7394706;19;19999;-59
2023/01/13 10:06:42;;;;;;;14.05;2.63;;;;;;;10.96;42.17;100100.59;7395759;19;20030;-59
2023/01/13 10:09:16;;;;;;;11.55;2.50;;;;;;;10.99;42.18;100113.53;7393687;19;20432;-59
2023/01/13 10:14:40;;;;;;;14.48;3.08;;;;;;;10.97;43.12;100113.13;7393464;19;20110;-59
2023/01/13 10:17:31;;;;;;;14.73;2.80;;;;;;;10.89;44.15;100114.91;7394674;19;20026;-59
2023/01/13 10:20:05;;;;;;;12.45;2.50;;;;;;;10.82;44.45;100133.06;7394865;19;20040;-58
2023/01/13 10:22:44;;;;;;;14.05;2.20;;;;;;;11.04;44.50;100139.78;7395050;19;20006;-58
2023/01/13 10:25:20;;;;;;;11.98;2.80;;;;;;;10.60;45.34;100138.06;7392799;19;20100;-58
2023/01/13 10:27:49;;;;;;;13.23;2.50;;;;;;;10.54;45.87;100144.97;7393539;19;20355;-58
2023/01/13 10:30:31;;;;;;;14.75;2.70;;;;;;;10.64;45.84;100138.16;7394065;19;20058;-58
2023/01/13 10:32:59;;;;;;;17.77;2.83;;;;;;;10.60;46.41;100142.72;7395149;19;20005;-58
2023/01/13 10:35:50;;;;;;;12.95;2.50;;;;;;;10.67;46.52;100140.94;7394175;19;20019;-58
2023/01/13 10:38:17;;;;;;;16.17;3.05;;;;;;;10.79;46.19;100147.47;7392148;19;20637;-59
2023/01/13 10:40:58;;;;;;;13.40;2.00;;;;;;;10.60;46.53;100146.25;7393781;19;20010;-59
2023/01/13 10:43:25;;;;;;;13.05;2.58;;;;;;;10.50;46.51;100138.63;7394008;19;20007;-59
2023/01/13 10:45:57;;;;;;;12.40;2.63;;;;;;;10.61;46.66;100141.59;7392428;19;20062;-59
2023/01/13 10:48:35;;;;;;;13.60;2.38;;;;;;;10.63;46.58;100131.88;7393595;19;20337;-58
2023/01/13 10:51:09;;;;;;;8.95;2.10;;;;;;;10.66;46.43;100131.16;7393075;19;19994;-58
2023/01/13 10:53:45;;;;;;;9.38;2.42;;;;;;;10.64;46.32;100117.09;7391550;19;20462;-58
2023/01/13 10:56:16;;;;;;;12.13;2.75;;;;;;;10.92;46.30;100116.09;7393644;19;20002;-58
2023/01/13 10:58:42;;;;;;;12.40;2.80;;;;;;;10.34;46.91;100125.81;7392013;19;20054;-57
2023/01/13 11:01:24;;;;;;;11.23;2.72;;;;;;;10.59;46.66;100120.13;7390549;19;20492;-58
2023/01/13 11:03:51;;;;;;;9.88;2.58;;;;;;;10.28;47.18;100132.69;7391574;19;20027;-57
2023/01/13 11:06:28;;;;;;;14.07;2.67;;;;;;;10.49;46.41;100120.69;7394066;19;20015;-57
2023/01/13 11:09:01;;;;;;;14.73;2.67;;;;;;;10.25;47.14;100119.78;7393171;19;20006;-59
2023/01/13 11:11:42;;;;;;;15.32;3.33;;;;;;;10.34;46.93;100125.81;7391295;19;20258;-59
2023/01/13 11:14:35;;;;;;;15.18;2.50;;;;;;;10.46;46.34;100126.84;7392511;19;20026;-57
2023/01/13 11:17:22;;;;;;;11.57;2.70;;;;;;;10.48;46.47;100132.72;7392419;19;20010;-57
2023/01/13 11:19:58;;;;;;;15.15;2.90;;;;;;;10.49;46.20;100126.13;7392642;19;20010;-58
2023/01/13 11:22:30;;;;;;;11.32;3.00;;;;;;;10.66;46.06;100122.97;7392939;19;20010;-58
2023/01/13 11:25:00;;;;;;;16.05;2.45;;;;;;;10.71;45.88;100128.16;7391371;19;20450;-58
2023/01/13 11:27:38;;;;;;;15.32;3.00;;;;;;;10.72;45.66;100126.25;7392563;19;20023;-58
2023/01/13 11:30:16;;;;;;;14.90;3.22;;;;;;;10.59;45.55;100120.13;7393042;19;20511;-58
2023/01/13 11:33:03;;;;;;;14.73;2.65;;;;;;;10.70;45.66;100129.31;7391460;19;20009;-58
2023/01/13 11:35:33;;;;;;;9.10;2.42;;;;;;;10.45;45.79;100119.81;7391264;19;20011;-58
2023/01/13 11:38:11;;;;;;;12.40;2.35;;;;;;;10.59;45.59;100119.34;7391985;19;20023;-58
2023/01/13 11:40:49;;;;;;;10.77;2.58;;;;;;;10.80;44.84;100138.09;7392014;19;20316;-58
2023/01/13 11:43:42;;;;;;;13.32;2.40;;;;;;;10.40;45.93;100134.50;7392176;19;20085;-57
2023/01/13 11:46:09;;;;;;;11.73;2.33;;;;;;;10.83;45.37;100127.25;7392325;19;20003;-58
2023/01/13 11:48:36;;;;;;;13.20;2.83;;;;;;;10.70;45.66;100123.06;7391764;19;20023;-58
2023/01/13 11:51:13;;;;;;;12.02;2.13;;;;;;;10.63;45.30;100129.16;7390001;19;20002;-58
2023/01/13 11:53:53;;;;;;;11.30;2.60;;;;;;;10.79;44.80;100120.94;7391875;19;19999;-58
2023/01/13 11:56:37;;;;;;;13.00;2.35;;;;;;;10.85;44.13;100122.22;7391759;19;20007;-59
2023/01/13 11:59:21;;;;;;;14.45;2.67;;;;;;;10.70;44.93;100129.31;7391203;19;20003;-59
2023/01/13 12:02:05;;;;;;;15.10;2.75;;;;;;;10.61;45.11;100138.88;7392056;19;20018;-58
2023/01/13 12:04:44;;;;;;;11.35;2.35;;;;;;;10.72;44.81;100140.66;7388156;19;20364;-58
2023/01/13 12:07:19;;;;;;;10.88;2.78;;;;;;;10.65;45.45;100164.28;7389018;19;20073;-58
2023/01/13 12:09:50;;;;;;;15.70;2.30;;;;;;;10.45;46.01;100147.91;7391589;19;20099;-58
2023/01/13 12:12:58;;;;;;;11.00;2.25;;;;;;;10.46;46.71;100154.13;7389650;19;20006;-58
2023/01/13 12:15:34;;;;;;;15.95;2.55;;;;;;;10.33;46.69;100156.97;7389601;19;20404;-58
2023/01/13 12:18:26;;;;;;;13.27;2.20;;;;;;;10.35;47.13;100153.88;7391080;19;20034;-58
2023/01/13 12:20:59;;;;;;;11.73;2.05;;;;;;;10.37;46.71;100160.56;7389306;19;19999;-58
2023/01/13 12:23:31;;;;;;;13.48;2.60;;;;;;;10.67;46.18;100149.13;7390968;19;20025;-57